Time;durP1;ratioP1;P1;durP2;ratioP2;P2;SDS_P1;SDS_P2;PMS_P1;PMS_P2;Temp;Humidity;BMP_temperature;BMP_pressure;BME280_temperature;BME280_humidity;BME280_pressure;Samples;Min_cycle;Max_cycle;Signal;HPM_P1;HPM_P2
2023/12/04 00:01:32;;;;;;;23.98;11.95;;;2.20;99.90;;;2.18;67.72;100390.69;5011321;28;20072;-82
2023/12/04 00:04:00;;;;;;;23.45;12.32;;;2.20;99.90;;;2.25;68.03;100383.84;5047647;28;20045;-82
2023/12/04 00:06:27;;;;;;;23.70;12.10;;;2.20;99.90;;;2.36;68.31;100387.97;5028897;28;20050;-82
2023/12/04 00:08:56;;;;;;;23.73;12.63;;;2.20;99.90;;;2.17;67.13;100383.78;5043398;28;20045;-82
2023/12/04 00:11:24;;;;;;;25.33;13.35;;;2.20;99.90;;;2.27;67.97;100377.41;5030176;28;20519;-82
2023/12/04 00:13:51;;;;;;;22.83;12.07;;;2.20;99.90;;;2.23;67.71;100383.97;5048148;28;20060;-82
2023/12/04 00:16:18;;;;;;;21.00;12.00;;;2.20;99.90;;;2.33;68.08;100378.56;5029624;28;20113;-82
2023/12/04 00:18:46;;;;;;;20.67;11.57;;;2.30;99.90;;;2.38;68.07;100373.66;5029259;28;20053;-82
2023/12/04 00:21:14;;;;;;;23.33;11.82;;;2.20;99.90;;;2.31;67.30;100380.56;5029321;28;20073;-82
2023/12/04 00:23:42;;;;;;;21.65;11.35;;;2.20;99.90;;;2.35;67.42;100371.38;5026877;28;20068;-82
2023/12/04 00:26:12;;;;;;;23.95;12.55;;;2.20;99.90;;;2.36;67.44;100361.66;5026867;28;20116;-82
2023/12/04 00:28:40;;;;;;;24.73;12.55;;;2.30;99.90;;;2.42;67.41;100363.63;5028606;28;20109;-83
2023/12/04 00:31:09;;;;;;;22.05;11.23;;;2.30;99.90;;;2.25;66.90;100362.78;5047342;28;20042;-82
2023/12/04 00:33:38;;;;;;;21.77;12.07;;;2.30;99.90;;;2.36;68.27;100362.47;5047279;28;20049;-82
2023/12/04 00:36:06;;;;;;;24.65;12.88;;;2.30;99.90;;;2.43;67.41;100371.38;5047481;28;20045;-82
2023/12/04 00:38:34;;;;;;;23.23;10.93;;;2.30;99.90;;;2.33;66.65;100354.91;5029238;28;20052;-82
2023/12/04 00:41:02;;;;;;;24.33;11.77;;;2.30;99.90;;;2.22;66.32;100355.19;5020701;28;20053;-82
2023/12/04 00:43:31;;;;;;;19.60;10.60;;;2.20;99.90;;;2.28;66.93;100354.56;5026550;28;20057;-82
2023/12/04 00:45:58;;;;;;;18.05;10.63;;;2.20;99.90;;;2.30;66.73;100355.22;5027927;28;20057;-82
2023/12/04 00:48:26;;;;;;;19.60;10.63;;;2.30;99.90;;;2.34;66.92;100346.00;5037551;28;20064;-82
2023/12/04 00:50:55;;;;;;;20.55;10.98;;;2.30;99.90;;;2.38;67.31;100342.06;5047259;28;20049;-82
2023/12/04 00:53:23;;;;;;;20.33;11.15;;;2.30;99.90;;;2.24;66.80;100343.53;5029509;28;20050;-82
2023/12/04 00:55:52;;;;;;;20.55;10.43;;;2.30;99.90;;;1.99;66.02;100333.91;5046185;28;20049;-82
2023/12/04 00:58:19;;;;;;;19.50;10.45;;;2.20;99.90;;;2.00;66.57;100330.28;5029291;28;20057;-82
2023/12/04 01:00:51;;;;;;;18.42;9.95;;;2.10;99.90;;;2.12;66.90;100330.84;5012785;28;20041;-82
2023/12/04 01:03:19;;;;;;;20.02;10.02;;;2.20;99.90;;;2.18;66.66;100319.66;5031490;28;20057;-82
2023/12/04 01:05:46;;;;;;;17.90;9.70;;;2.20;99.90;;;2.26;67.06;100317.06;5046775;28;20045;-82
2023/12/04 01:08:14;;;;;;;17.35;9.85;;;2.30;99.90;;;2.29;65.87;100311.47;5044863;28;20080;-82
2023/12/04 01:10:42;;;;;;;20.02;10.20;;;2.30;99.90;;;2.23;66.04;100327.91;5046459;28;20041;-82
2023/12/04 01:13:09;;;;;;;19.75;10.27;;;2.30;99.90;;;2.30;66.44;100319.22;5028493;28;20057;-82
2023/12/04 01:15:38;;;;;;;18.45;9.80;;;2.30;99.90;;;2.32;66.36;100313.78;5045002;28;20061;-82
2023/12/04 01:18:07;;;;;;;17.17;9.63;;;2.40;99.90;;;2.44;66.61;100312.50;5042456;28;20067;-82
2023/12/04 01:20:36;;;;;;;19.38;10.07;;;2.40;99.90;;;2.45;65.51;100310.69;5028657;28;20037;-82
2023/12/04 01:23:03;;;;;;;17.23;9.88;;;2.40;99.90;;;2.41;65.66;100299.66;5028921;28;20507;-82
2023/12/04 01:25:31;;;;;;;20.33;10.93;;;2.40;99.90;;;2.48;65.86;100307.72;5044127;28;20072;-82
2023/12/04 01:27:58;;;;;;;17.63;9.80;;;2.40;99.90;;;2.52;65.80;100293.25;5029447;28;20144;-82
2023/12/04 01:30:25;;;;;;;19.35;9.90;;;2.40;99.90;;;2.46;65.45;100289.47;5047634;28;20049;-82
2023/12/04 01:32:53;;;;;;;16.10;8.88;;;2.40;99.90;;;2.49;66.44;100289.16;5034987;28;20054;-82
2023/12/04 01:35:22;;;;;;;18.27;10.15;;;2.40;99.90;;;2.54;66.25;100294.75;5028541;28;20069;-82
2023/12/04 01:37:49;;;;;;;16.08;9.57;;;2.40;99.90;;;2.49;64.89;100289.16;5027891;28;20045;-82
2023/12/04 01:40:17;;;;;;;19.05;9.77;;;2.40;99.90;;;2.51;65.57;100287.16;5011209;28;20100;-82
2023/12/04 01:42:44;;;;;;;16.13;8.70;;;2.40;99.90;;;2.46;64.77;100288.66;5011001;28;20053;-83
2023/12/04 01:45:12;;;;;;;16.27;9.30;;;2.40;99.90;;;2.50;65.24;100282.06;5027999;28;20034;-82
2023/12/04 01:47:40;;;;;;;17.17;9.55;;;2.40;99.90;;;2.28;64.56;100270.34;5011343;28;20045;-82
2023/12/04 01:50:10;;;;;;;19.80;10.32;;;2.40;99.90;;;2.34;64.86;100272.34;5045950;28;20048;-82
2023/12/04 01:52:40;;;;;;;15.73;8.73;;;2.30;99.90;;;2.41;65.14;100275.16;5049288;28;20100;-82
2023/12/04 01:55:11;;;;;;;18.55;10.35;;;2.40;99.90;;;2.49;65.14;100277.78;5049552;28;20046;-82
2023/12/04 01:57:38;;;;;;;16.42;9.45;;;2.40;99.90;;;2.46;64.55;100267.59;5048918;28;20054;-82
2023/12/04 02:00:11;;;;;;;18.30;9.85;;;2.40;99.90;;;2.50;64.82;100266.28;5033417;28;20049;-82
2023/12/04 02:02:39;;;;;;;18.08;9.35;;;2.40;99.90;;;2.31;63.92;100280.56;5049783;28;20049;-82
2023/12/04 02:05:08;;;;;;;15.68;9.68;;;2.40;99.90;;;2.42;64.98;100263.63;5017975;28;20053;-82
2023/12/04 02:07:38;;;;;;;16.50;9.48;;;2.40;99.90;;;2.33;63.78;100263.63;5010787;28;20116;-82
2023/12/04 02:10:07;;;;;;;17.38;9.70;;;2.40;99.90;;;2.37;64.74;100274.66;5011451;28;20030;-82
2023/12/04 02:12:35;;;;;;;18.23;9.30;;;2.30;99.90;;;2.46;65.01;100263.16;5018476;28;20049;-82
2023/12/04 02:15:03;;;;;;;16.15;9.60;;;2.50;99.90;;;2.52;64.83;100265.13;5048799;28;20055;-82
2023/12/04 02:17:31;;;;;;;17.65;9.73;;;2.50;99.90;;;2.52;64.57;100257.22;5031208;28;20050;-82
2023/12/04 02:19:58;;;;;;;16.27;9.07;;;2.50;99.90;;;2.57;64.05;100270.72;5016290;28;20046;-82
2023/12/04 02:22:26;;;;;;;16.10;9.05;;;2.50;99.90;;;2.60;64.49;100263.50;5030208;28;20122;-83
2023/12/04 02:24:58;;;;;;;15.18;8.68;;;2.50;99.90;;;2.58;63.85;100263.63;5029896;28;20050;-82
2023/12/04 02:27:30;;;;;;;17.92;9.93;;;2.50;99.90;;;2.53;64.05;100258.84;5016000;28;20080;-82
2023/12/04 02:30:01;;;;;;;15.00;8.73;;;2.50;99.90;;;2.43;62.86;100255.56;5016880;28;20104;-82
2023/12/04 02:32:34;;;;;;;14.07;8.27;;;2.40;99.90;;;2.45;63.64;100248.34;5019536;28;20041;-82
2023/12/04 02:35:05;;;;;;;17.63;9.10;;;2.40;99.90;;;2.42;63.83;100250.47;5031613;28;20049;-82
2023/12/04 02:37:34;;;;;;;15.85;8.48;;;2.40;99.90;;;2.44;63.21;100238.81;5048977;28;20045;-82
2023/12/04 02:40:05;;;;;;;17.13;9.13;;;2.40;99.90;;;2.49;63.18;100233.88;5029485;28;20050;-82
2023/12/04 02:42:32;;;;;;;15.23;8.60;;;2.50;99.90;;;2.45;62.48;100242.25;5028894;28;20057;-82
2023/12/04 02:45:00;;;;;;;15.07;8.45;;;2.40;99.90;;;2.42;62.51;100240.78;5025553;28;20045;-82
2023/12/04 02:47:28;;;;;;;15.30;8.90;;;2.40;99.90;;;2.50;63.28;100235.53;5011102;28;20056;-82
2023/12/04 02:49:55;;;;;;;15.48;8.80;;;2.50;99.90;;;2.56;63.35;100232.22;5018249;28;20048;-82
2023/12/04 02:52:23;;;;;;;17.10;9.25;;;2.50;99.90;;;2.56;62.44;100224.31;5029508;28;20050;-82
2023/12/04 02:54:50;;;;;;;16.00;7.85;;;2.50;99.90;;;2.57;62.34;100222.50;5027375;28;20050;-82
2023/12/04 02:57:20;;;;;;;14.30;7.72;;;2.50;99.90;;;2.54;61.07;100218.41;5045242;28;20057;-82
2023/12/04 02:59:47;;;;;;;13.70;8.25;;;2.40;99.90;;;2.57;62.00;100220.69;5030194;28;20045;-82
2023/12/04 03:02:15;;;;;;;14.43;8.38;;;2.50;99.90;;;2.51;61.25;100225.81;5045933;28;20046;-82
2023/12/04 03:04:43;;;;;;;13.77;8.07;;;2.50;99.90;;;2.50;61.88;100211.00;5047907;28;20045;-82
2023/12/04 03:07:11;;;;;;;14.73;8.00;;;2.50;99.90;;;2.54;61.96;100207.88;5029328;28;20084;-82
2023/12/04 03:09:39;;;;;;;14.52;7.85;;;2.50;99.90;;;2.55;61.36;100204.25;5010554;28;20052;-82
2023/12/04 03:12:07;;;;;;;14.38;7.97;;;2.50;99.90;;;2.61;61.39;100201.94;5011382;28;20050;-82
2023/12/04 03:14:36;;;;;;;16.25;8.77;;;2.50;99.90;;;2.53;60.19;100200.94;5010851;28;20128;-82
2023/12/04 03:17:04;;;;;;;14.55;7.68;;;2.50;99.90;;;2.57;61.06;100202.28;5010737;28;20412;-82
2023/12/04 03:19:32;;;;;;;13.63;8.15;;;2.50;99.90;;;2.53;60.33;100194.88;5031548;28;20046;-83
2023/12/04 03:22:01;;;;;;;14.40;8.13;;;2.50;99.90;;;2.56;60.28;100190.09;5015547;28;20045;-82
2023/12/04 03:24:28;;;;;;;14.43;7.40;;;2.50;99.90;;;2.60;60.59;100195.88;5030705;28;20042;-82
2023/12/04 03:26:56;;;;;;;13.60;7.60;;;2.50;99.90;;;2.62;60.02;100185.97;5048082;28;20048;-82
2023/12/04 03:29:23;;;;;;;12.18;6.97;;;2.50;99.90;;;2.66;60.48;100191.75;5029876;28;20076;-82
2023/12/04 03:31:52;;;;;;;13.65;8.02;;;2.50;99.90;;;2.71;61.11;100184.16;5029899;28;20045;-82
2023/12/04 03:34:20;;;;;;;13.50;7.90;;;2.60;99.90;;;2.69;60.00;100180.88;5023494;28;20046;-82
2023/12/04 03:36:48;;;;;;;12.25;6.90;;;2.60;99.90;;;2.66;58.88;100178.56;5009073;28;20054;-82
2023/12/04 03:39:15;;;;;;;15.20;7.40;;;2.50;99.90;;;2.65;59.83;100176.94;5027001;28;20104;-82
2023/12/04 03:41:43;;;;;;;11.32;6.43;;;2.60;99.90;;;2.66;59.74;100168.03;5028866;28;20042;-82
2023/12/04 03:44:10;;;;;;;12.57;6.72;;;2.60;99.90;;;2.63;59.63;100165.75;5010456;28;20057;-82
2023/12/04 03:46:38;;;;;;;13.00;6.65;;;2.50;99.90;;;2.57;58.04;100169.88;5014683;28;20037;-82
2023/12/04 03:49:07;;;;;;;11.27;6.32;;;2.50;99.90;;;2.62;59.36;100174.63;5012873;28;20091;-82
2023/12/04 03:51:35;;;;;;;12.90;6.80;;;2.60;99.90;;;2.65;58.83;100172.50;5032830;28;20061;-82
2023/12/04 03:54:03;;;;;;;12.00;6.40;;;2.70;99.90;;;2.72;59.02;100172.63;5026584;28;20045;-82
2023/12/04 03:56:30;;;;;;;11.55;6.28;;;2.60;99.90;;;2.73;58.59;100164.59;5010003;28;20046;-82
2023/12/04 03:58:57;;;;;;;12.05;6.43;;;2.60;99.90;;;2.65;59.04;100166.41;5009892;28;20049;-82
2023/12/04 04:01:25;;;;;;;12.32;7.07;;;2.60;99.90;;;2.74;59.06;100162.78;5027978;28;20073;-82
2023/12/04 04:03:53;;;;;;;11.25;5.93;;;2.60;99.90;;;2.64;56.95;100162.13;5009164;28;20049;-82
2023/12/04 04:06:22;;;;;;;17.65;7.60;;;2.60;99.90;;;2.63;57.72;100166.56;5026586;28;20048;-82
2023/12/04 04:08:52;;;;;;;13.63;6.75;;;2.60;99.90;;;2.62;56.79;100156.19;5027247;28;20057;-83
2023/12/04 04:11:19;;;;;;;13.07;6.75;;;2.60;99.90;;;2.73;58.34;100150.56;5010143;28;20061;-82
2023/12/04 04:13:47;;;;;;;12.65;6.60;;;2.60;99.90;;;2.76;58.28;100147.63;5009181;28;20402;-82
2023/12/04 04:16:16;;;;;;;11.85;6.28;;;2.60;99.90;;;2.75;56.59;100145.97;5027242;28;20042;-82
2023/12/04 04:18:44;;;;;;;10.93;5.88;;;2.60;99.90;;;2.66;57.04;100139.91;5008374;28;20053;-82
2023/12/04 04:21:11;;;;;;;12.05;6.70;;;2.60;99.90;;;2.71;58.22;100139.41;5025458;28;20510;-82
2023/12/04 04:23:41;;;;;;;10.57;6.20;;;2.60;99.90;;;2.64;56.37;100134.00;5009437;28;20050;-82
2023/12/04 04:26:09;;;;;;;10.45;6.03;;;2.60;99.90;;;2.70;58.05;100141.22;5008927;28;20038;-82
2023/12/04 04:28:36;;;;;;;9.32;5.47;;;2.60;99.90;;;2.71;54.87;100131.50;5009643;28;20046;-82
2023/12/04 04:31:07;;;;;;;12.38;6.45;;;2.60;99.90;;;2.64;55.21;100127.91;5025950;28;20050;-82
2023/12/04 04:33:34;;;;;;;10.73;5.80;;;2.60;99.90;;;2.70;56.51;100137.78;5009262;28;20081;-82
2023/12/04 04:36:02;;;;;;;13.48;6.00;;;2.60;99.90;;;2.72;57.19;100135.78;5026430;28;20048;-82
2023/12/04 04:38:29;;;;;;;9.88;5.28;;;2.60;99.90;;;2.80;57.45;100127.88;5021193;28;20050;-86
2023/12/04 04:40:58;;;;;;;10.55;5.95;;;2.70;99.90;;;2.82;56.23;100125.88;5005575;28;20056;-83
2023/12/04 04:43:25;;;;;;;12.68;6.53;;;2.70;99.90;;;2.85;57.48;100117.66;5019684;28;20057;-84
2023/12/04 04:45:53;;;;;;;12.30;6.30;;;2.70;99.90;;;2.83;55.80;100123.09;5023241;28;20057;-82
2023/12/04 04:48:21;;;;;;;11.30;6.20;;;2.70;99.90;;;2.87;56.25;100123.56;5024072;28;20050;-83
2023/12/04 04:50:48;;;;;;;10.40;5.78;;;2.70;99.90;;;2.91;56.57;100113.50;5016159;28;20049;-84
2023/12/04 04:53:16;;;;;;;11.68;6.15;;;2.70;99.90;;;2.93;56.20;100109.72;5023120;28;20045;-85
2023/12/04 04:55:43;;;;;;;10.50;5.70;;;2.80;99.90;;;2.90;56.06;100115.31;5040138;28;20053;-85
2023/12/04 04:58:12;;;;;;;10.77;5.85;;;2.70;99.90;;;2.94;57.13;100108.72;5022647;28;20041;-84
2023/12/04 05:00:40;;;;;;;9.48;5.57;;;2.70;99.90;;;2.99;57.87;100111.66;5018828;28;20033;-84
2023/12/04 05:03:07;;;;;;;9.40;5.30;;;2.80;99.90;;;3.02;57.54;100108.69;5020844;28;20421;-84
2023/12/04 05:05:35;;;;;;;10.25;5.53;;;2.80;99.90;;;3.02;57.71;100106.03;5002262;28;20045;-84
2023/12/04 05:08:02;;;;;;;9.27;5.50;;;2.80;99.90;;;3.02;56.92;100106.03;5019260;28;20111;-85
2023/12/04 05:10:33;;;;;;;8.93;5.30;;;2.80;99.90;;;3.03;56.77;100105.06;5000737;28;20529;-84
2023/12/04 05:13:01;;;;;;;10.30;5.78;;;2.80;99.90;;;2.98;55.68;100106.59;5024327;28;20049;-84
2023/12/04 05:15:30;;;;;;;10.63;5.82;;;2.80;99.90;;;2.96;56.12;100101.47;5025825;28;20045;-84
2023/12/04 05:17:58;;;;;;;10.60;5.88;;;2.70;99.90;;;2.96;55.29;100103.28;5007492;28;20049;-84
2023/12/04 05:20:25;;;;;;;9.55;5.88;;;2.70;99.90;;;2.89;54.73;100094.44;5009399;28;20400;-84
2023/12/04 05:22:53;;;;;;;11.30;6.03;;;2.70;99.90;;;2.89;55.54;100095.25;5009003;28;20053;-84
2023/12/04 05:25:20;;;;;;;12.40;6.15;;;2.70;99.90;;;2.91;56.12;100110.88;5043233;28;20050;-84
2023/12/04 05:27:52;;;;;;;11.70;6.13;;;2.70;99.90;;;2.94;56.33;100105.28;5021716;28;20552;-87
2023/12/04 05:30:20;;;;;;;;;;;2.70;99.90;;;2.88;55.07;100104.16;5022829;28;20038;-87
2023/12/04 05:32:49;;;;;;;12.38;6.03;;;2.70;99.90;;;2.91;55.94;100095.88;4997144;28;19921;-88
2023/12/04 05:35:17;;;;;;;10.00;6.10;;;2.70;99.90;;;2.91;55.07;100085.34;5028924;28;20049;-83
2023/12/04 05:37:46;;;;;;;10.43;6.03;;;2.80;99.90;;;2.92;56.09;100083.53;5015556;28;20115;-83
2023/12/04 05:40:14;;;;;;;12.38;6.60;;;2.70;99.90;;;2.95;56.54;100085.84;5027472;28;20075;-84
2023/12/04 05:42:42;;;;;;;11.48;7.18;;;2.80;99.90;;;2.95;56.10;100089.28;5036287;28;20045;-83
2023/12/04 05:45:10;;;;;;;12.10;6.40;;;2.80;99.90;;;2.95;56.68;100084.03;5053313;28;20104;-84
2023/12/04 05:47:40;;;;;;;13.88;6.95;;;2.80;99.90;;;2.94;55.59;100081.56;5044391;28;20069;-83
2023/12/04 05:50:11;;;;;;;13.13;7.10;;;2.80;99.90;;;2.93;55.21;100080.75;5020378;28;20496;-83
2023/12/04 05:52:39;;;;;;;11.90;6.60;;;2.70;99.90;;;2.88;55.61;100072.53;5066018;28;20049;-83
2023/12/04 05:55:07;;;;;;;12.18;7.22;;;2.70;99.90;;;2.95;56.74;100086.66;5048421;28;20037;-83
2023/12/04 05:57:35;;;;;;;11.50;6.63;;;2.80;99.90;;;2.96;57.04;100085.66;5048169;28;20045;-83
2023/12/04 06:00:03;;;;;;;12.63;7.47;;;2.80;99.90;;;2.96;56.19;100093.56;5064769;28;20045;-83
2023/12/04 06:02:32;;;;;;;12.52;6.70;;;2.70;99.90;;;2.95;55.82;100089.28;5070006;28;20065;-83
2023/12/04 06:04:59;;;;;;;24.63;7.93;;;2.70;99.90;;;2.94;56.66;100084.19;5035657;28;20060;-83
2023/12/04 06:07:29;;;;;;;22.13;8.15;;;2.80;99.90;;;2.93;55.69;100085.16;5050873;28;20067;-83
2023/12/04 06:09:57;;;;;;;16.13;8.00;;;2.70;99.90;;;2.95;56.32;100077.94;5067573;28;20079;-83
2023/12/04 06:12:25;;;;;;;17.27;7.53;;;2.80;99.90;;;3.00;56.91;100086.97;5069224;28;20052;-83
2023/12/04 06:14:52;;;;;;;13.32;7.57;;;2.80;99.90;;;3.01;56.49;100085.97;5069809;28;20077;-83
2023/12/04 06:17:20;;;;;;;13.30;7.72;;;2.80;99.90;;;3.01;55.83;100085.97;5051401;28;20045;-86
2023/12/04 06:19:48;;;;;;;13.25;7.90;;;2.80;99.90;;;3.01;56.08;100079.88;5051752;28;20040;-85
2023/12/04 06:22:19;;;;;;;17.85;11.40;;;2.80;99.90;;;2.87;54.05;100080.59;5070030;28;20051;-82
2023/12/04 06:24:51;;;;;;;;;;;2.70;99.90;;;2.89;55.67;100078.63;5069307;28;20067;-84
2023/12/04 06:27:21;;;;;;;10.63;6.97;;;2.70;99.90;;;2.85;54.18;100072.88;5052511;28;19956;-82
2023/12/04 06:29:50;;;;;;;12.60;6.97;;;2.70;99.90;;;2.76;54.61;100051.00;5052130;28;20087;-82
2023/12/04 06:32:18;;;;;;;12.93;7.05;;;2.70;99.90;;;2.75;54.73;100040.66;5052009;28;20113;-82
2023/12/04 06:34:48;;;;;;;11.60;6.63;;;2.70;99.90;;;2.79;54.48;100041.97;5031569;28;20144;-82
2023/12/04 06:37:17;;;;;;;11.50;7.03;;;2.70;99.90;;;2.86;55.39;100042.91;5047659;28;20041;-82
2023/12/04 06:39:49;;;;;;;13.70;7.70;;;2.70;99.90;;;2.81;53.26;100037.34;5015134;28;20061;-82
2023/12/04 06:42:19;;;;;;;12.57;6.85;;;2.70;99.90;;;2.77;54.69;100039.47;5047330;28;20045;-82
2023/12/04 06:44:48;;;;;;;12.95;7.57;;;2.70;99.90;;;2.83;55.38;100041.47;5030287;28;20049;-82
2023/12/04 06:47:23;;;;;;;12.52;7.25;;;2.70;99.90;;;2.85;55.65;100033.38;5029788;28;20046;-83
2023/12/04 06:49:51;;;;;;;12.73;7.25;;;2.70;99.90;;;2.82;54.10;100026.63;5046660;28;20069;-82
2023/12/04 06:52:18;;;;;;;13.57;7.60;;;2.70;99.90;;;2.76;55.50;100019.41;5014299;28;20045;-83
2023/12/04 06:54:48;;;;;;;12.68;7.43;;;2.70;99.90;;;2.79;55.94;100013.00;5047422;28;20061;-83
2023/12/04 06:57:15;;;;;;;15.80;8.95;;;2.70;99.90;;;2.82;56.43;100000.28;5047363;28;20053;-82
2023/12/04 06:59:43;;;;;;;13.55;7.53;;;2.70;99.90;;;2.87;56.13;100004.22;5047226;28;20117;-82
2023/12/04 07:02:11;;;;;;;13.20;7.75;;;2.70;99.90;;;2.87;55.53;99999.78;5029841;28;20041;-83
2023/12/04 07:04:39;;;;;;;16.42;8.18;;;2.70;99.90;;;2.80;54.81;99996.22;5046897;28;20113;-82
2023/12/04 07:07:07;;;;;;;14.13;7.43;;;2.60;99.90;;;2.83;55.70;99991.44;5050588;28;20044;-83
2023/12/04 07:09:36;;;;;;;14.60;8.02;;;2.70;99.90;;;2.85;56.34;99983.34;5068048;28;20071;-82
2023/12/04 07:12:08;;;;;;;13.13;7.22;;;2.70;99.90;;;2.85;55.73;99980.72;5049996;28;20055;-82
2023/12/04 07:14:37;;;;;;;14.25;7.93;;;2.80;99.90;;;2.82;55.64;99975.78;5051438;28;20065;-82
2023/12/04 07:17:05;;;;;;;14.10;7.65;;;2.70;99.90;;;2.88;56.02;99966.34;5070240;28;20040;-82
2023/12/04 07:19:33;;;;;;;12.38;6.95;;;2.70;99.90;;;2.87;55.35;99970.81;5050983;28;20079;-83
2023/12/04 07:22:01;;;;;;;12.50;7.38;;;2.70;99.90;;;2.82;55.31;99971.31;5067358;28;20072;-83
2023/12/04 07:24:28;;;;;;;12.98;7.70;;;2.70;99.90;;;2.81;54.55;99961.78;5068979;28;20044;-83
2023/12/04 07:26:58;;;;;;;12.02;7.05;;;2.70;99.90;;;2.77;54.40;99959.69;5051276;28;20044;-82
2023/12/04 07:29:28;;;;;;;12.13;7.38;;;2.60;99.90;;;2.81;55.16;99950.44;5068889;28;20060;-83
2023/12/04 07:31:56;;;;;;;13.50;7.28;;;2.70;99.90;;;2.79;54.71;99952.44;5050434;28;20071;-82
2023/12/04 07:34:24;;;;;;;14.02;7.57;;;2.70;99.90;;;2.81;54.69;99946.00;5068291;28;20045;-82
2023/12/04 07:36:52;;;;;;;12.38;6.60;;;2.70;99.90;;;2.84;53.62;99937.75;5049862;28;20504;-82
2023/12/04 07:39:20;;;;;;;11.82;6.63;;;2.70;99.90;;;2.88;54.58;99932.97;5049800;28;20507;-83
2023/12/04 07:41:48;;;;;;;11.20;6.13;;;2.70;99.90;;;2.89;54.36;99936.41;5050709;28;20045;-82
2023/12/04 07:44:16;;;;;;;12.63;6.22;;;2.70;99.90;;;2.90;54.35;99936.25;5050478;28;20116;-82
2023/12/04 07:46:45;;;;;;;12.63;6.72;;;2.70;99.90;;;2.94;54.95;99919.09;5066709;28;20045;-82
2023/12/04 07:49:12;;;;;;;10.77;6.07;;;2.80;99.90;;;2.99;55.28;99922.03;5068628;28;20052;-83
2023/12/04 07:51:40;;;;;;;10.57;6.28;;;2.80;99.90;;;2.98;54.86;99909.84;5068362;28;20044;-82
2023/12/04 07:54:11;;;;;;;9.68;5.65;;;2.80;99.90;;;2.92;52.84;99905.25;5050562;28;20075;-84
2023/12/04 07:56:38;;;;;;;;;;;2.80;99.90;;;2.97;54.02;99908.19;5051222;28;20063;-83
2023/12/04 07:59:06;;;;;;;12.25;6.65;;;2.80;99.90;;;2.99;53.03;99911.50;5050174;28;19951;-82
2023/12/04 08:01:34;;;;;;;10.95;6.28;;;2.90;99.90;;;2.94;52.82;99915.66;5066053;28;20096;-83
2023/12/04 08:04:03;;;;;;;13.77;7.07;;;2.80;99.90;;;3.01;53.97;99903.41;5068665;28;20072;-82
2023/12/04 08:06:32;;;;;;;11.77;6.40;;;2.90;99.90;;;3.05;54.43;99907.31;5049735;28;20405;-82
2023/12/04 08:08:59;;;;;;;11.98;6.13;;;2.90;99.90;;;3.10;54.94;99908.44;5049468;28;20076;-83
2023/12/04 08:11:27;;;;;;;10.05;5.72;;;2.90;99.90;;;3.15;55.14;99905.25;5066630;28;20053;-82
2023/12/04 08:13:55;;;;;;;11.93;5.78;;;3.00;99.90;;;3.19;55.25;99914.47;5066752;28;20052;-82
2023/12/04 08:16:22;;;;;;;12.75;6.10;;;3.00;99.90;;;3.13;54.03;99907.28;5050056;28;20045;-82
2023/12/04 08:18:50;;;;;;;10.07;5.55;;;3.00;99.90;;;3.17;54.39;99910.34;5066453;28;20424;-83
2023/12/04 08:21:19;;;;;;;10.93;6.28;;;3.00;99.90;;;3.18;53.62;99914.66;5032615;28;20063;-82
2023/12/04 08:23:46;;;;;;;10.77;5.93;;;3.00;99.90;;;3.19;54.11;99922.38;5049902;28;20052;-82
2023/12/04 08:26:15;;;;;;;10.02;6.00;;;3.00;99.90;;;3.24;54.61;99913.94;5049445;28;20473;-83
2023/12/04 08:28:43;;;;;;;10.38;5.50;;;3.10;99.90;;;3.23;54.48;99918.38;5067341;28;20114;-82
2023/12/04 08:31:11;;;;;;;8.73;5.13;;;3.10;99.90;;;3.20;53.29;99912.66;5067741;28;20067;-82
2023/12/04 08:33:39;;;;;;;9.88;6.22;;;3.10;99.90;;;3.19;53.78;99918.91;5066162;28;20044;-82
2023/12/04 08:36:10;;;;;;;9.77;5.68;;;3.10;99.90;;;3.15;52.19;99915.00;5066053;28;20041;-83
2023/12/04 08:38:39;;;;;;;9.35;5.53;;;3.10;99.90;;;3.19;53.10;99908.38;5051936;28;20071;-82
2023/12/04 08:41:07;;;;;;;8.63;5.10;;;3.10;99.90;;;3.23;53.72;99917.56;5048919;28;20053;-82
2023/12/04 08:43:35;;;;;;;12.38;5.50;;;3.10;99.90;;;3.18;51.79;99914.66;5048205;28;20071;-82
2023/12/04 08:46:03;;;;;;;9.75;5.47;;;3.10;99.90;;;3.17;51.80;99905.91;5048528;28;20072;-82
2023/12/04 08:48:30;;;;;;;10.13;5.38;;;3.10;99.90;;;3.12;51.96;99899.53;5048979;28;20056;-83
2023/12/04 08:50:59;;;;;;;8.82;5.38;;;3.10;99.90;;;3.18;52.66;99901.47;5049549;28;20075;-83
2023/12/04 08:53:27;;;;;;;9.23;5.28;;;3.10;99.90;;;3.21;52.89;99894.00;5067559;28;20504;-83
2023/12/04 08:55:57;;;;;;;9.70;6.10;;;3.20;99.90;;;3.27;54.05;99893.31;5065595;28;20049;-82
2023/12/04 08:58:24;;;;;;;9.70;5.18;;;3.20;99.90;;;3.26;52.99;99886.38;5067466;28;20047;-83
2023/12/04 09:00:54;;;;;;;10.88;5.05;;;3.20;99.90;;;3.31;53.43;99878.75;5032849;28;20049;-83
2023/12/04 09:03:24;;;;;;;8.45;4.57;;;3.20;99.90;;;3.32;53.67;99871.72;5049535;28;20048;-82
2023/12/04 09:05:55;;;;;;;9.32;4.70;;;3.30;99.90;;;3.32;52.55;99887.53;5067154;28;20063;-82
2023/12/04 09:08:25;;;;;;;9.82;5.40;;;3.30;99.90;;;3.34;52.11;99874.97;5065056;28;20041;-82
2023/12/04 09:10:56;;;;;;;11.38;5.60;;;3.30;99.90;;;3.39;52.85;99875.25;5066780;28;20124;-82
2023/12/04 09:13:24;;;;;;;9.00;4.80;;;3.30;99.90;;;3.39;52.54;99875.25;5049026;28;20136;-82
2023/12/04 09:15:51;;;;;;;9.18;5.13;;;3.30;99.90;;;3.42;52.08;99866.19;5049006;28;20049;-82
2023/12/04 09:18:19;;;;;;;9.52;5.38;;;3.40;99.90;;;3.43;52.30;99860.72;5015010;28;20131;-83
2023/12/04 09:20:47;;;;;;;9.57;4.97;;;3.40;99.90;;;3.38;51.10;99857.81;5065085;28;20048;-83
2023/12/04 09:23:17;;;;;;;9.23;5.05;;;3.30;99.90;;;3.34;50.33;99852.06;5067209;28;20104;-82
2023/12/04 09:25:46;;;;;;;9.50;5.00;;;3.30;99.90;;;3.38;51.97;99842.00;5048791;28;20075;-83
2023/12/04 09:28:16;;;;;;;9.90;4.95;;;3.40;99.90;;;3.41;51.61;99846.88;5065450;28;20049;-84
2023/12/04 09:30:44;;;;;;;8.80;5.13;;;3.40;99.90;;;3.39;51.53;99833.09;5066575;28;20108;-85
2023/12/04 09:33:11;;;;;;;8.90;5.07;;;3.40;99.90;;;3.34;49.76;99827.53;5065000;28;20049;-85
2023/12/04 09:35:39;;;;;;;11.13;5.07;;;3.40;99.90;;;3.34;51.92;99830.16;5067207;28;20045;-86
2023/12/04 09:38:08;;;;;;;8.88;4.93;;;3.40;99.90;;;3.40;52.18;99831.25;5063415;28;20056;-85
2023/12/04 09:40:36;;;;;;;8.73;4.70;;;3.40;99.90;;;3.43;52.59;99823.00;5047565;28;20140;-86
2023/12/04 09:43:04;;;;;;;10.48;5.28;;;3.40;99.90;;;3.49;53.76;99831.00;5031036;28;20052;-84
2023/12/04 09:45:40;;;;;;;9.52;4.68;;;3.50;99.90;;;3.54;53.87;99828.63;5060808;28;20091;-85
2023/12/04 09:48:09;;;;;;;9.80;5.28;;;3.50;99.90;;;3.51;52.83;99828.97;5062100;28;20061;-85
2023/12/04 09:50:38;;;;;;;8.57;4.60;;;3.50;99.90;;;3.55;52.82;99819.72;5061808;28;20041;-85
2023/12/04 09:53:11;;;;;;;11.43;5.15;;;3.50;99.90;;;3.58;53.78;99819.38;5056276;28;20053;-88
2023/12/04 09:55:39;;;;;;;9.07;4.70;;;3.50;99.90;;;3.58;52.87;99823.81;5052162;28;20132;-88
2023/12/04 09:58:07;;;;;;;9.90;4.45;;;3.60;99.90;;;3.58;52.32;99810.66;5053548;28;20049;-88
2023/12/04 10:00:36;;;;;;;8.38;4.65;;;3.60;99.90;;;3.59;53.13;99802.53;5053671;28;20044;-86
2023/12/04 10:03:05;;;;;;;10.05;4.57;;;3.60;99.90;;;3.61;52.88;99815.53;5053429;28;20045;-87
2023/12/04 10:05:33;;;;;;;9.50;5.13;;;3.60;99.90;;;3.57;51.99;99809.84;5052079;28;20044;-87
2023/12/04 10:08:00;;;;;;;9.40;4.82;;;3.60;99.90;;;3.60;53.48;99796.25;5055929;28;20564;-87
2023/12/04 10:10:28;;;;;;;7.85;4.63;;;3.60;99.90;;;3.65;52.92;99805.44;5035433;28;20049;-87
2023/12/04 10:12:59;;;;;;;10.20;5.28;;;3.60;99.90;;;3.58;52.51;99789.56;5035273;28;20052;-87
2023/12/04 10:15:27;;;;;;;8.98;4.78;;;3.60;99.90;;;3.63;53.06;99803.00;5035808;28;20045;-87
2023/12/04 10:17:57;;;;;;;9.95;5.35;;;3.60;99.90;;;3.64;53.32;99788.81;5035099;28;20045;-87
2023/12/04 10:20:25;;;;;;;9.25;4.93;;;3.60;99.90;;;3.70;53.29;99779.34;5035499;28;20062;-86
2023/12/04 10:22:55;;;;;;;8.93;5.10;;;3.70;99.90;;;3.72;53.44;99775.53;5052950;28;20049;-86
2023/12/04 10:25:25;;;;;;;9.73;5.60;;;3.70;99.90;;;3.74;53.69;99783.25;5035469;28;20044;-86
2023/12/04 10:27:53;;;;;;;8.63;5.18;;;3.70;99.90;;;3.68;52.81;99766.34;5035155;28;20045;-86